ECSPL EDDN-LKKV
Flight info
| Callsign | ECSPL |
|---|---|
| Flight time | 0h 24m |
| Altitude | 5000 |
| Route | VFR LOCAL |
| Aircraft | PC12/L-VD/A |
Departure
| Time | 2026-04-25 22:35 |
|---|---|
| Airport | Nuremberg Airport (EDDN) |
Arrival
| Time | 2026-04-25 22:59 |
|---|---|
| Airport | Karlovy Vary Airport (LKKV) |
| Time | Latitude | Longitude | Altitude | Speed | Heading |
|---|---|---|---|---|---|
| 2026-04-25 22:25 | 49.49581 | 11.08203 | 1037 ft | 0 kts | 188° |
| 2026-04-25 22:31 | 49.49540 | 11.08223 | 1035 ft | 13 kts | 101° |
| 2026-04-25 22:31 | 49.49540 | 11.08340 | 1038 ft | 12 kts | 57° |
| 2026-04-25 22:31 | 49.49618 | 11.08388 | 1039 ft | 11 kts | 52° |
| 2026-04-25 22:32 | 49.49628 | 11.08409 | 1039 ft | 0 kts | 54° |
| 2026-04-25 22:33 | 49.49641 | 11.08437 | 1039 ft | 8 kts | 54° |
| 2026-04-25 22:33 | 49.49698 | 11.08544 | 1041 ft | 17 kts | 36° |
| 2026-04-25 22:34 | 49.49794 | 11.08504 | 1040 ft | 19 kts | 289° |
| 2026-04-25 22:34 | 49.49839 | 11.08114 | 1040 ft | 65 kts | 277° |
| 2026-04-25 22:34 | 49.49930 | 11.07200 | 1094 ft | 101 kts | 278° |
| 2026-04-25 22:34 | 49.50032 | 11.06068 | 1414 ft | 114 kts | 278° |
| 2026-04-25 22:35 | 49.50183 | 11.04810 | 1760 ft | 126 kts | 293° |
| 2026-04-25 22:35 | 49.50778 | 11.03836 | 2073 ft | 130 kts | 340° |
| 2026-04-25 22:35 | 49.51781 | 11.04004 | 2080 ft | 173 kts | 25° |
| 2026-04-25 22:35 | 49.52729 | 11.05416 | 2226 ft | 204 kts | 57° |
| 2026-04-25 22:36 | 49.53160 | 11.07531 | 2422 ft | 212 kts | 77° |
| 2026-04-25 22:36 | 49.53380 | 11.09814 | 2500 ft | 220 kts | 78° |
| 2026-04-25 22:36 | 49.53571 | 11.12193 | 2544 ft | 226 kts | 80° |
| 2026-04-25 22:36 | 49.53736 | 11.14599 | 2745 ft | 223 kts | 79° |
| 2026-04-25 22:37 | 49.53930 | 11.16970 | 2971 ft | 224 kts | 80° |
| 2026-04-25 22:37 | 49.54256 | 11.19290 | 3338 ft | 222 kts | 65° |
| 2026-04-25 22:37 | 49.55013 | 11.21394 | 3675 ft | 228 kts | 54° |
| 2026-04-25 22:37 | 49.55966 | 11.23511 | 3625 ft | 252 kts | 51° |
| 2026-04-25 22:38 | 49.56989 | 11.25732 | 3620 ft | 256 kts | 53° |
| 2026-04-25 22:38 | 49.57618 | 11.27273 | 3624 ft | 254 kts | 56° |
| 2026-04-25 22:38 | 49.58498 | 11.29614 | 3985 ft | 252 kts | 57° |
| 2026-04-25 22:38 | 49.59688 | 11.32660 | 4433 ft | 247 kts | 55° |
| 2026-04-25 22:39 | 49.60578 | 11.34909 | 4803 ft | 246 kts | 55° |
| 2026-04-25 22:39 | 49.61183 | 11.36434 | 5034 ft | 247 kts | 56° |
| 2026-04-25 22:39 | 49.62068 | 11.38700 | 5392 ft | 247 kts | 55° |
| 2026-04-25 22:39 | 49.62960 | 11.40978 | 5743 ft | 249 kts | 56° |
| 2026-04-25 22:40 | 49.63860 | 11.43266 | 6091 ft | 249 kts | 55° |
| 2026-04-25 22:40 | 49.64740 | 11.45522 | 6466 ft | 249 kts | 56° |
| 2026-04-25 22:40 | 49.65657 | 11.47863 | 6476 ft | 261 kts | 56° |
| 2026-04-25 22:40 | 49.66613 | 11.50298 | 6482 ft | 268 kts | 56° |
| 2026-04-25 22:41 | 49.67583 | 11.52790 | 6484 ft | 270 kts | 56° |
| 2026-04-25 22:41 | 49.68550 | 11.55278 | 6481 ft | 271 kts | 56° |
| 2026-04-25 22:41 | 49.69521 | 11.57765 | 6483 ft | 270 kts | 56° |
| 2026-04-25 22:41 | 49.70496 | 11.60272 | 6476 ft | 272 kts | 56° |
| 2026-04-25 22:42 | 49.71457 | 11.62738 | 6476 ft | 271 kts | 56° |
| 2026-04-25 22:42 | 49.72425 | 11.65230 | 6466 ft | 270 kts | 56° |
| 2026-04-25 22:42 | 49.73391 | 11.67719 | 6475 ft | 270 kts | 54° |
| 2026-04-25 22:42 | 49.74367 | 11.70221 | 6472 ft | 271 kts | 57° |
| 2026-04-25 22:43 | 49.75332 | 11.72728 | 6470 ft | 272 kts | 56° |
| 2026-04-25 22:43 | 49.76302 | 11.75240 | 6457 ft | 270 kts | 56° |
| 2026-04-25 22:43 | 49.77272 | 11.77736 | 6461 ft | 270 kts | 56° |
| 2026-04-25 22:43 | 49.78237 | 11.80231 | 6472 ft | 271 kts | 56° |
| 2026-04-25 22:44 | 49.79203 | 11.82738 | 6473 ft | 270 kts | 56° |
| 2026-04-25 22:44 | 49.80169 | 11.85239 | 6465 ft | 272 kts | 57° |
| 2026-04-25 22:44 | 49.81133 | 11.87754 | 6469 ft | 270 kts | 56° |
| 2026-04-25 22:44 | 49.82090 | 11.90214 | 6511 ft | 270 kts | 56° |
| 2026-04-25 22:45 | 49.83066 | 11.92755 | 6522 ft | 271 kts | 56° |
| 2026-04-25 22:45 | 49.84027 | 11.95267 | 6526 ft | 271 kts | 56° |
| 2026-04-25 22:45 | 49.84985 | 11.97782 | 6520 ft | 271 kts | 56° |
| 2026-04-25 22:45 | 49.85943 | 12.00269 | 6532 ft | 271 kts | 55° |
| 2026-04-25 22:46 | 49.86911 | 12.02780 | 6511 ft | 271 kts | 56° |
| 2026-04-25 22:46 | 49.87870 | 12.05297 | 6529 ft | 271 kts | 55° |
| 2026-04-25 22:46 | 49.88833 | 12.07812 | 6521 ft | 271 kts | 56° |
| 2026-04-25 22:46 | 49.89794 | 12.10330 | 6510 ft | 270 kts | 56° |
| 2026-04-25 22:47 | 49.90742 | 12.12814 | 6508 ft | 270 kts | 56° |
| 2026-04-25 22:47 | 49.91702 | 12.15329 | 6523 ft | 271 kts | 56° |
| 2026-04-25 22:47 | 49.92658 | 12.17845 | 6515 ft | 271 kts | 56° |
| 2026-04-25 22:47 | 49.93620 | 12.20363 | 6513 ft | 270 kts | 56° |
| 2026-04-25 22:48 | 49.94575 | 12.22880 | 6532 ft | 271 kts | 56° |
| 2026-04-25 22:48 | 49.95534 | 12.25412 | 6514 ft | 271 kts | 56° |
| 2026-04-25 22:48 | 49.96490 | 12.27932 | 6533 ft | 271 kts | 56° |
| 2026-04-25 22:48 | 49.97455 | 12.30450 | 6516 ft | 271 kts | 56° |
| 2026-04-25 22:49 | 49.98405 | 12.32981 | 6518 ft | 271 kts | 56° |
| 2026-04-25 22:49 | 49.99353 | 12.35500 | 6515 ft | 270 kts | 56° |
| 2026-04-25 22:49 | 50.00309 | 12.38022 | 6531 ft | 271 kts | 56° |
| 2026-04-25 22:49 | 50.01266 | 12.40546 | 6519 ft | 271 kts | 56° |
| 2026-04-25 22:50 | 50.02222 | 12.43072 | 6527 ft | 272 kts | 56° |
| 2026-04-25 22:50 | 50.03170 | 12.45599 | 6510 ft | 271 kts | 56° |
| 2026-04-25 22:50 | 50.04121 | 12.48135 | 6507 ft | 271 kts | 56° |
| 2026-04-25 22:50 | 50.05072 | 12.50661 | 6519 ft | 271 kts | 56° |
| 2026-04-25 22:51 | 50.06023 | 12.53190 | 6507 ft | 268 kts | 56° |
| 2026-04-25 22:51 | 50.06937 | 12.55632 | 6503 ft | 255 kts | 56° |
| 2026-04-25 22:51 | 50.07817 | 12.57976 | 6500 ft | 247 kts | 56° |
| 2026-04-25 22:51 | 50.08680 | 12.60273 | 6502 ft | 243 kts | 55° |
| 2026-04-25 22:52 | 50.09532 | 12.62541 | 6500 ft | 242 kts | 56° |
| 2026-04-25 22:52 | 50.10346 | 12.64738 | 6502 ft | 222 kts | 55° |
| 2026-04-25 22:52 | 50.11063 | 12.66673 | 6361 ft | 193 kts | 54° |
| 2026-04-25 22:52 | 50.11498 | 12.67834 | 6181 ft | 181 kts | 54° |
| 2026-04-25 22:53 | 50.12282 | 12.69929 | 5860 ft | 159 kts | 53° |
| 2026-04-25 22:53 | 50.12825 | 12.71365 | 5627 ft | 158 kts | 50° |
| 2026-04-25 22:53 | 50.13455 | 12.73000 | 5422 ft | 189 kts | 56° |
| 2026-04-25 22:53 | 50.14133 | 12.74849 | 5260 ft | 203 kts | 55° |
| 2026-04-25 22:54 | 50.14845 | 12.76812 | 5104 ft | 204 kts | 55° |
| 2026-04-25 22:54 | 50.15548 | 12.78693 | 4914 ft | 197 kts | 54° |
| 2026-04-25 22:54 | 50.16233 | 12.80523 | 4706 ft | 195 kts | 55° |
| 2026-04-25 22:54 | 50.16839 | 12.82330 | 4538 ft | 178 kts | 63° |
| 2026-04-25 22:55 | 50.17071 | 12.84119 | 4329 ft | 162 kts | 83° |
| 2026-04-25 22:55 | 50.17068 | 12.85883 | 4039 ft | 166 kts | 91° |
| 2026-04-25 22:55 | 50.16898 | 12.87640 | 3829 ft | 162 kts | 103° |
| 2026-04-25 22:55 | 50.16556 | 12.89277 | 3612 ft | 145 kts | 99° |
| 2026-04-25 22:56 | 50.16546 | 12.90674 | 3443 ft | 120 kts | 63° |
| 2026-04-25 22:56 | 50.17066 | 12.91621 | 3169 ft | 115 kts | 20° |
| 2026-04-25 22:56 | 50.17766 | 12.92189 | 2967 ft | 118 kts | 41° |
| 2026-04-25 22:56 | 50.17995 | 12.93421 | 3018 ft | 124 kts | 98° |
| 2026-04-25 22:57 | 50.17720 | 12.94658 | 2941 ft | 118 kts | 112° |
| 2026-04-25 22:57 | 50.17365 | 12.95765 | 2974 ft | 111 kts | 117° |
| 2026-04-25 22:57 | 50.17129 | 12.96882 | 3047 ft | 109 kts | 76° |
| 2026-04-25 22:57 | 50.17550 | 12.97725 | 2986 ft | 98 kts | 10° |
| 2026-04-25 22:58 | 50.18167 | 12.97538 | 2863 ft | 92 kts | 326° |
| 2026-04-25 22:58 | 50.18710 | 12.96974 | 2706 ft | 94 kts | 318° |
| 2026-04-25 22:58 | 50.19065 | 12.96158 | 2538 ft | 89 kts | 288° |
| 2026-04-25 22:58 | 50.19270 | 12.95265 | 2365 ft | 87 kts | 292° |
| 2026-04-25 22:59 | 50.19510 | 12.94418 | 2224 ft | 85 kts | 289° |
| 2026-04-25 22:59 | 50.19743 | 12.93558 | 2107 ft | 85 kts | 289° |
| 2026-04-25 22:59 | 50.19974 | 12.92723 | 1995 ft | 80 kts | 289° |
| 2026-04-25 22:59 | 50.20158 | 12.92052 | 1991 ft | 45 kts | 292° |
| 2026-04-25 23:00 | 50.20238 | 12.91765 | 1993 ft | 25 kts | 291° |
| 2026-04-25 23:00 | 50.20291 | 12.91579 | 1996 ft | 17 kts | 293° |
| 2026-04-25 23:00 | 50.20338 | 12.91397 | 1996 ft | 19 kts | 293° |
| 2026-04-25 23:00 | 50.20363 | 12.91254 | 1998 ft | 12 kts | 219° |
| 2026-04-25 23:01 | 50.20300 | 12.91212 | 1997 ft | 1 kts | 200° |
| 2026-04-25 23:01 | 50.20299 | 12.91212 | 1997 ft | 0 kts | 201° |
| 2026-04-25 23:01 | 50.20287 | 12.91204 | 1996 ft | 7 kts | 203° |
| 2026-04-25 23:01 | 50.20231 | 12.91146 | 1991 ft | 11 kts | 202° |
| 2026-04-25 23:02 | 50.20194 | 12.91123 | 1988 ft | 0 kts | 204° |